Pagrindinis puslapis
METAR-TAF:

METAR-TAF

Oro uostai :

Broome, Australija

platuma: 17-57S, ilguma: 122-13E, Aukštis: 17 m

Dabartinis oras

Ataskaita buvo paskelbta 43 minutes, ne 19:30 UTC
Vėjas 11 kt iš Pietryčių
Temperatūra 24°C
Drėgmė 22%
Slėgis 1013 hPa
Matomumas 10 km arba daugiau

METAR: YBRM 201930Z AUTO 13011KT 9999 // NCD 24/01 Q1013 RF00.0/000.0

Laikas: 04:13 (20:13 UTC)

Prognozė

Ataskaita buvo paskelbta 3 valandos ir 13 minutes, ne 17:00 UTC
Prognozė galioja nuo 20 metu 18 UTC su 21 metu 18 UTC
Vėjas 8 kt iš Pietryčių
Matomumas 10 km arba daugiau
nėra debesų žemiau 1500 m ir nėra kamuolinių lietaus debesų
Nuo 20 metu 2300 UTC
Vėjas 15 kt iš Rytų/Pietryčių su gūsio iki 25 kt
Matomumas 10 km arba daugiau
nėra debesų žemiau 1500 m ir nėra kamuolinių lietaus debesų
Nuo 21 metu 0600 UTC
Vėjas 8 kt iš Pietų/Pietryčių
Matomumas 10 km arba daugiau
nėra debesų žemiau 1500 m ir nėra kamuolinių lietaus debesų

TAF: YBRM 201700Z 2018/2118 13008KT CAVOK FM202300 11015G25KT CAVOK FM210600 16008KT CAVOK

Orai ataskaitas ir orų prognozės (METAR, TAF).

turimą stotys yra geltonos ir raudonos taškus žemėlapyje.

Perkelti pele per norėdami pamatyti stoties vardą.

Tada spustelėkite, norėdami matyti oro stebėjimo ir prognozės.

Norėdami pakeisti žemėlapį: spustelėkite ant žalios mygtukų su juodo kryžiaus žemyn,; žalią mygtuką su brūkšneliu, jei norite nutolinti; arba žalių rodyklių gretimoms žemėlapius.


METAR-TAF: